Time;durP1;ratioP1;P1;durP2;ratioP2;P2;SDS_P1;SDS_P2;PMS_P1;PMS_P2;Temp;Humidity;BMP_temperature;BMP_pressure;BME280_temperature;BME280_humidity;BME280_pressure;Samples;Min_cycle;Max_cycle;Signal;HPM_P1;HPM_P2
2021/09/03 00:00:20;;;;;;;6.05;4.05;;;;;;;;;;5115781;28;20035;-72
2021/09/03 00:02:47;;;;;;;6.57;3.78;;;;;;;;;;5115022;28;20035;-72
2021/09/03 00:05:14;;;;;;;6.75;3.72;;;;;;;;;;5115093;28;20024;-73
2021/09/03 00:07:40;;;;;;;7.40;3.90;;;;;;;;;;5115087;28;20035;-72
2021/09/03 00:10:07;;;;;;;4.55;3.80;;;;;;;;;;5096950;28;20126;-72
2021/09/03 00:12:33;;;;;;;4.93;4.07;;;;;;;;;;5115368;28;20038;-72
2021/09/03 00:15:00;;;;;;;6.90;3.95;;;;;;;;;;5115388;28;20380;-73
2021/09/03 00:17:26;;;;;;;7.70;4.13;;;;;;;;;;5114868;28;20129;-71
2021/09/03 00:19:52;;;;;;;8.32;3.80;;;;;;;;;;5115090;28;20456;-73
2021/09/03 00:22:19;;;;;;;5.45;3.70;;;;;;;;;;5115140;28;20495;-72
2021/09/03 00:24:45;;;;;;;5.10;3.67;;;;;;;;;;5115070;28;20059;-73
2021/09/03 00:27:11;;;;;;;9.48;3.70;;;;;;;;;;5115123;28;20036;-72
2021/09/03 00:29:37;;;;;;;7.03;3.85;;;;;;;;;;5115186;28;20035;-73
2021/09/03 00:32:04;;;;;;;6.88;4.18;;;;;;;;;;5114715;28;20044;-73
2021/09/03 00:34:30;;;;;;;8.90;3.90;;;;;;;;;;5114773;28;20041;-72
2021/09/03 00:36:56;;;;;;;7.82;4.32;;;;;;;;;;5114671;28;20452;-72
2021/09/03 00:39:22;;;;;;;15.02;4.13;;;;;;;;;;5114637;28;20040;-72
2021/09/03 00:41:48;;;;;;;8.38;3.92;;;;;;;;;;5115014;28;20089;-73
2021/09/03 00:44:14;;;;;;;5.45;4.15;;;;;;;;;;5114949;28;20373;-73
2021/09/03 00:46:40;;;;;;;5.00;4.05;;;;;;;;;;5114764;28;20598;-73
2021/09/03 00:49:06;;;;;;;5.95;3.95;;;;;;;;;;5114928;28;20043;-72
2021/09/03 00:51:32;;;;;;;6.70;3.95;;;;;;;;;;5114704;28;20468;-72
2021/09/03 00:53:58;;;;;;;5.90;4.25;;;;;;;;;;5114590;28;20042;-72
2021/09/03 00:56:24;;;;;;;7.45;3.80;;;;;;;;;;5114511;28;20490;-72
2021/09/03 00:58:50;;;;;;;6.75;4.10;;;;;;;;;;5112650;28;20423;-74
2021/09/03 01:01:17;;;;;;;9.10;4.22;;;;;;;;;;5111715;28;20024;-72
2021/09/03 01:03:44;;;;;;;5.43;3.78;;;;;;;;;;5111442;28;20043;-73
2021/09/03 01:06:10;;;;;;;5.63;4.43;;;;;;;;;;5113806;28;20502;-72
2021/09/03 01:08:36;;;;;;;9.13;4.10;;;;;;;;;;5113967;28;20035;-72
2021/09/03 01:11:02;;;;;;;6.72;4.30;;;;;;;;;;5096128;28;20035;-72
2021/09/03 01:13:28;;;;;;;5.53;4.15;;;;;;;;;;5113500;28;20035;-74
2021/09/03 01:15:54;;;;;;;5.70;4.15;;;;;;;;;;5113799;28;20027;-73
2021/09/03 01:18:20;;;;;;;6.47;4.00;;;;;;;;;;5113772;28;20046;-72
2021/09/03 01:20:47;;;;;;;6.35;4.22;;;;;;;;;;5113785;28;20027;-73
2021/09/03 01:23:16;;;;;;;5.10;4.10;;;;;;;;;;5114017;28;20105;-72
2021/09/03 01:25:42;;;;;;;5.38;4.22;;;;;;;;;;5113827;28;20047;-72
2021/09/03 01:28:08;;;;;;;7.78;4.13;;;;;;;;;;5113381;28;20036;-72
2021/09/03 01:30:34;;;;;;;9.00;4.63;;;;;;;;;;5113972;28;20055;-71
2021/09/03 01:33:01;;;;;;;6.88;3.83;;;;;;;;;;5113990;28;20035;-71
2021/09/03 01:35:27;;;;;;;5.30;4.13;;;;;;;;;;5113707;28;20028;-72
2021/09/03 01:37:53;;;;;;;7.15;4.18;;;;;;;;;;5113733;28;20058;-72
2021/09/03 01:40:19;;;;;;;6.03;4.32;;;;;;;;;;5113411;28;20031;-71
2021/09/03 01:42:45;;;;;;;5.80;4.40;;;;;;;;;;5113610;28;20089;-72
2021/09/03 01:45:11;;;;;;;5.15;4.10;;;;;;;;;;5113683;28;20047;-72
2021/09/03 01:47:37;;;;;;;5.68;4.53;;;;;;;;;;5113691;28;20031;-72
2021/09/03 01:50:04;;;;;;;7.32;4.10;;;;;;;;;;5113178;28;20032;-71
2021/09/03 01:52:30;;;;;;;5.57;3.63;;;;;;;;;;5113838;28;20106;-72
2021/09/03 01:54:56;;;;;;;6.55;4.00;;;;;;;;;;5113510;28;20612;-72
2021/09/03 01:57:22;;;;;;;6.28;3.85;;;;;;;;;;5113107;28;20185;-72
2021/09/03 01:59:48;;;;;;;8.35;4.53;;;;;;;;;;5113025;28;20040;-73
2021/09/03 02:02:14;;;;;;;6.55;3.83;;;;;;;;;;5113015;28;20031;-71
2021/09/03 02:04:40;;;;;;;5.90;4.43;;;;;;;;;;5113411;28;20114;-72
2021/09/03 02:07:06;;;;;;;6.25;3.80;;;;;;;;;;5113545;28;20055;-72
2021/09/03 02:09:32;;;;;;;5.47;4.32;;;;;;;;;;5114133;28;20488;-72
2021/09/03 02:11:58;;;;;;;7.45;3.90;;;;;;;;;;5113004;28;20055;-72
2021/09/03 02:14:24;;;;;;;11.98;5.00;;;;;;;;;;5113165;28;20070;-73
2021/09/03 02:16:50;;;;;;;8.35;4.13;;;;;;;;;;5113141;28;20027;-73
2021/09/03 02:19:16;;;;;;;6.32;3.85;;;;;;;;;;5113017;28;20073;-72
2021/09/03 02:21:42;;;;;;;6.13;3.85;;;;;;;;;;5113370;28;20076;-72
2021/09/03 02:24:08;;;;;;;5.65;4.30;;;;;;;;;;5113016;28;20438;-73
2021/09/03 02:26:34;;;;;;;4.85;3.65;;;;;;;;;;5116197;28;20028;-72
2021/09/03 02:29:00;;;;;;;7.68;4.00;;;;;;;;;;5117533;28;20050;-72
2021/09/03 02:31:26;;;;;;;5.97;4.35;;;;;;;;;;5117221;28;20028;-72
2021/09/03 02:33:52;;;;;;;4.80;4.20;;;;;;;;;;5117207;28;20031;-73
2021/09/03 02:36:18;;;;;;;7.78;4.07;;;;;;;;;;5117170;28;20126;-72
2021/09/03 02:38:45;;;;;;;6.13;4.30;;;;;;;;;;5117157;28;20043;-72
2021/09/03 02:41:11;;;;;;;6.47;3.83;;;;;;;;;;5117059;28;20548;-72
2021/09/03 02:43:37;;;;;;;5.15;3.85;;;;;;;;;;5117430;28;20040;-72
2021/09/03 02:46:03;;;;;;;6.22;4.38;;;;;;;;;;5117125;28;20035;-73
2021/09/03 02:48:30;;;;;;;5.63;4.40;;;;;;;;;;5117207;28;20031;-72
2021/09/03 02:50:56;;;;;;;6.43;4.40;;;;;;;;;;5116947;28;20467;-72
2021/09/03 02:53:22;;;;;;;4.68;3.90;;;;;;;;;;5117090;28;20027;-73
2021/09/03 02:55:48;;;;;;;10.23;4.40;;;;;;;;;;5116744;28;20038;-72
2021/09/03 02:58:14;;;;;;;6.00;3.85;;;;;;;;;;5116909;28;20047;-72
2021/09/03 03:00:40;;;;;;;5.47;4.10;;;;;;;;;;5116850;28;20059;-72
2021/09/03 03:03:07;;;;;;;6.43;4.38;;;;;;;;;;5116673;28;20063;-73
2021/09/03 03:05:33;;;;;;;6.32;3.95;;;;;;;;;;5116741;28;20062;-72
2021/09/03 03:07:59;;;;;;;6.47;4.03;;;;;;;;;;5116814;28;20031;-73
2021/09/03 03:10:26;;;;;;;6.53;4.45;;;;;;;;;;5116321;28;20032;-71
2021/09/03 03:12:55;;;;;;;5.47;4.15;;;;;;;;;;5116500;28;20051;-72
2021/09/03 03:15:24;;;;;;;5.45;4.30;;;;;;;;;;5116806;28;20032;-74
2021/09/03 03:17:51;;;;;;;8.02;3.83;;;;;;;;;;5116543;28;20035;-72
2021/09/03 03:20:17;;;;;;;5.65;4.00;;;;;;;;;;5116544;28;20028;-71
2021/09/03 03:22:46;;;;;;;8.98;4.18;;;;;;;;;;5116182;28;20035;-73
2021/09/03 03:25:12;;;;;;;10.27;4.40;;;;;;;;;;5116207;28;20044;-73
2021/09/03 03:27:39;;;;;;;5.00;3.85;;;;;;;;;;5116198;28;20062;-73
2021/09/03 03:30:06;;;;;;;7.20;4.50;;;;;;;;;;5116262;28;20567;-72
2021/09/03 03:32:32;;;;;;;8.00;4.28;;;;;;;;;;5116216;28;20514;-72
2021/09/03 03:34:58;;;;;;;5.25;4.15;;;;;;;;;;5116225;28;20032;-72
2021/09/03 03:37:24;;;;;;;6.53;4.55;;;;;;;;;;5115206;28;20068;-72
2021/09/03 03:39:50;;;;;;;4.93;3.85;;;;;;;;;;5116087;28;20115;-72
2021/09/03 03:42:16;;;;;;;6.13;4.20;;;;;;;;;;5116196;28;20111;-72
2021/09/03 03:44:42;;;;;;;6.15;4.03;;;;;;;;;;5115851;28;20031;-73
2021/09/03 03:47:08;;;;;;;7.10;4.05;;;;;;;;;;5115957;28;20380;-74
2021/09/03 03:49:35;;;;;;;6.25;3.90;;;;;;;;;;5115996;28;20078;-72
2021/09/03 03:52:01;;;;;;;7.13;4.70;;;;;;;;;;5116166;28;20039;-72
2021/09/03 03:54:27;;;;;;;10.85;4.38;;;;;;;;;;5115729;28;20059;-72
2021/09/03 03:56:53;;;;;;;7.18;4.38;;;;;;;;;;5115694;28;20483;-72
2021/09/03 03:59:19;;;;;;;7.53;4.40;;;;;;;;;;5115657;28;20044;-73
2021/09/03 04:01:45;;;;;;;5.88;4.03;;;;;;;;;;5115727;28;20035;-72
2021/09/03 04:04:11;;;;;;;6.47;4.30;;;;;;;;;;5115757;28;20441;-73
2021/09/03 04:06:37;;;;;;;6.95;4.00;;;;;;;;;;5115570;28;20032;-72
2021/09/03 04:09:03;;;;;;;4.60;3.65;;;;;;;;;;5115576;28;20376;-74
2021/09/03 04:11:29;;;;;;;5.10;4.00;;;;;;;;;;5115459;28;20081;-73
2021/09/03 04:13:55;;;;;;;5.68;3.80;;;;;;;;;;5115466;28;20036;-73
2021/09/03 04:16:21;;;;;;;7.47;4.32;;;;;;;;;;5115805;28;20070;-72
2021/09/03 04:18:47;;;;;;;6.32;4.35;;;;;;;;;;5115006;28;20126;-72
2021/09/03 04:21:13;;;;;;;6.43;4.38;;;;;;;;;;5115519;28;20088;-72
2021/09/03 04:23:39;;;;;;;7.05;4.32;;;;;;;;;;5115319;28;20118;-71
2021/09/03 04:26:05;;;;;;;7.97;4.32;;;;;;;;;;5114972;28;20067;-71
2021/09/03 04:28:31;;;;;;;6.50;4.25;;;;;;;;;;5115060;28;20415;-72
2021/09/03 04:30:57;;;;;;;6.18;4.07;;;;;;;;;;5115051;28;20116;-72
2021/09/03 04:33:23;;;;;;;11.50;4.47;;;;;;;;;;5115266;28;20036;-71
2021/09/03 04:35:49;;;;;;;8.55;3.97;;;;;;;;;;5115055;28;20089;-71
2021/09/03 04:38:15;;;;;;;9.77;4.55;;;;;;;;;;5114564;28;20541;-71
2021/09/03 04:40:41;;;;;;;11.93;4.60;;;;;;;;;;5115088;28;20035;-72
2021/09/03 04:43:08;;;;;;;8.32;4.80;;;;;;;;;;5114970;28;20051;-72
2021/09/03 04:45:34;;;;;;;10.30;4.35;;;;;;;;;;5115179;28;20024;-72
2021/09/03 04:48:00;;;;;;;8.52;4.22;;;;;;;;;;5114067;28;20114;-71
2021/09/03 04:50:26;;;;;;;11.10;4.28;;;;;;;;;;5115057;28;20063;-71
2021/09/03 04:52:52;;;;;;;6.25;4.10;;;;;;;;;;5114606;28;20039;-72
2021/09/03 04:55:18;;;;;;;10.48;4.30;;;;;;;;;;5115198;28;20087;-72
2021/09/03 04:57:44;;;;;;;7.38;4.50;;;;;;;;;;5114568;28;20042;-71
2021/09/03 05:00:11;;;;;;;9.77;4.25;;;;;;;;;;5114551;28;20031;-71
2021/09/03 05:02:37;;;;;;;5.43;4.28;;;;;;;;;;5114542;28;20078;-72
2021/09/03 05:05:04;;;;;;;8.85;4.43;;;;;;;;;;5114300;28;20088;-73
2021/09/03 05:07:30;;;;;;;6.32;4.43;;;;;;;;;;5114435;28;20145;-72
2021/09/03 05:09:56;;;;;;;9.68;4.60;;;;;;;;;;5114364;28;20448;-72
2021/09/03 05:12:22;;;;;;;6.10;4.05;;;;;;;;;;5114085;28;20128;-72
2021/09/03 05:14:48;;;;;;;4.85;4.25;;;;;;;;;;5114356;28;20059;-72
2021/09/03 05:17:14;;;;;;;6.45;3.88;;;;;;;;;;5114155;28;20067;-72
2021/09/03 05:19:40;;;;;;;8.85;4.40;;;;;;;;;;5114010;28;20563;-73
2021/09/03 05:22:06;;;;;;;7.60;4.50;;;;;;;;;;5114266;28;20070;-74
2021/09/03 05:24:32;;;;;;;8.85;4.50;;;;;;;;;;5114077;28;20139;-73
2021/09/03 05:26:58;;;;;;;7.55;4.10;;;;;;;;;;5095991;28;20027;-73
2021/09/03 05:29:24;;;;;;;8.02;4.35;;;;;;;;;;5113933;28;20032;-73
2021/09/03 05:31:50;;;;;;;7.57;4.05;;;;;;;;;;5114049;28;20032;-72
2021/09/03 05:34:16;;;;;;;7.60;3.90;;;;;;;;;;5113763;28;20032;-74
2021/09/03 05:36:42;;;;;;;8.63;4.38;;;;;;;;;;5113740;28;20035;-73
2021/09/03 05:39:08;;;;;;;6.47;4.53;;;;;;;;;;5113892;28;20044;-71
2021/09/03 05:41:34;;;;;;;6.90;4.30;;;;;;;;;;5114019;28;20039;-73
2021/09/03 05:44:00;;;;;;;5.97;4.40;;;;;;;;;;5113929;28;20039;-72
2021/09/03 05:46:26;;;;;;;6.18;4.20;;;;;;;;;;5112735;28;20032;-72
2021/09/03 05:48:52;;;;;;;14.85;4.72;;;;;;;;;;5113236;28;20059;-72
2021/09/03 05:51:20;;;;;;;6.20;4.40;;;;;;;;;;5113390;28;20035;-72
2021/09/03 05:53:46;;;;;;;6.43;3.88;;;;;;;;;;5113417;28;20035;-73
2021/09/03 05:56:12;;;;;;;8.75;4.07;;;;;;;;;;5113466;28;20046;-72
2021/09/03 05:58:38;;;;;;;6.95;4.28;;;;;;;;;;5113879;28;20081;-72
2021/09/03 06:01:04;;;;;;;5.57;4.32;;;;;;;;;;5113613;28;20035;-72
2021/09/03 06:03:31;;;;;;;9.18;4.10;;;;;;;;;;5113623;28;20036;-72
2021/09/03 06:05:57;;;;;;;6.03;4.18;;;;;;;;;;5113202;28;20040;-71
2021/09/03 06:08:23;;;;;;;5.88;4.38;;;;;;;;;;5113204;28;20478;-72
2021/09/03 06:10:49;;;;;;;5.80;4.18;;;;;;;;;;5113182;28;20036;-72
2021/09/03 06:13:15;;;;;;;4.75;3.75;;;;;;;;;;5113093;28;20476;-71
2021/09/03 06:15:41;;;;;;;5.22;3.90;;;;;;;;;;5113226;28;20050;-72
2021/09/03 06:18:07;;;;;;;9.85;4.57;;;;;;;;;;5112883;28;20035;-72
2021/09/03 06:20:33;;;;;;;4.25;3.70;;;;;;;;;;5112970;28;20028;-72
2021/09/03 06:22:59;;;;;;;10.18;4.07;;;;;;;;;;5112733;28;20035;-72
2021/09/03 06:25:25;;;;;;;6.53;4.15;;;;;;;;;;5112321;28;20048;-72
2021/09/03 06:27:51;;;;;;;9.05;4.40;;;;;;;;;;5113121;28;20071;-72
2021/09/03 06:30:17;;;;;;;11.00;3.80;;;;;;;;;;5113138;28;20066;-72
2021/09/03 06:32:43;;;;;;;8.88;3.78;;;;;;;;;;5113133;28;20032;-72
2021/09/03 06:35:09;;;;;;;5.65;3.72;;;;;;;;;;5112278;28;20062;-73
2021/09/03 06:37:35;;;;;;;5.95;3.83;;;;;;;;;;5111422;28;20067;-71
2021/09/03 06:40:02;;;;;;;6.97;3.70;;;;;;;;;;5112276;28;20046;-73
2021/09/03 06:42:30;;;;;;;7.28;4.03;;;;;;;;;;5112329;28;20038;-72
2021/09/03 06:44:56;;;;;;;6.18;3.78;;;;;;;;;;5112519;28;20032;-73
2021/09/03 06:47:22;;;;;;;5.93;3.67;;;;;;;;;;5112755;28;20038;-73
2021/09/03 06:49:48;;;;;;;4.43;3.53;;;;;;;;;;5112952;28;20036;-76
2021/09/03 06:52:15;;;;;;;8.02;4.28;;;;;;;;;;5112908;28;20027;-72
2021/09/03 06:54:41;;;;;;;5.47;3.95;;;;;;;;;;5112828;28;20036;-72
2021/09/03 06:57:07;;;;;;;5.05;3.80;;;;;;;;;;5112986;28;20475;-75
2021/09/03 06:59:33;;;;;;;8.55;3.97;;;;;;;;;;5112804;28;20078;-71
2021/09/03 07:01:59;;;;;;;8.73;4.55;;;;;;;;;;5111681;28;20036;-72
2021/09/03 07:04:25;;;;;;;8.43;3.70;;;;;;;;;;5112548;28;20055;-72
2021/09/03 07:06:51;;;;;;;5.70;4.03;;;;;;;;;;5111479;28;20107;-72
2021/09/03 07:09:18;;;;;;;5.32;4.10;;;;;;;;;;5112487;28;20090;-73
2021/09/03 07:11:44;;;;;;;7.65;3.63;;;;;;;;;;5114145;28;20031;-73
2021/09/03 07:14:10;;;;;;;5.90;3.63;;;;;;;;;;5116525;28;20484;-73
2021/09/03 07:16:36;;;;;;;7.35;3.90;;;;;;;;;;5116702;28;20395;-72
2021/09/03 07:19:03;;;;;;;4.25;3.85;;;;;;;;;;5116720;28;20497;-71
2021/09/03 07:21:30;;;;;;;6.13;4.07;;;;;;;;;;5116593;28;20472;-71
2021/09/03 07:23:56;;;;;;;5.47;3.72;;;;;;;;;;5115774;28;20031;-71
2021/09/03 07:26:22;;;;;;;5.40;4.28;;;;;;;;;;5114997;28;20172;-71
2021/09/03 07:28:49;;;;;;;6.35;3.58;;;;;;;;;;5116454;28;20031;-72
2021/09/03 07:31:15;;;;;;;5.65;4.20;;;;;;;;;;5116274;28;20096;-72
2021/09/03 07:33:41;;;;;;;6.68;4.00;;;;;;;;;;5116473;28;20460;-72
2021/09/03 07:36:07;;;;;;;4.93;3.25;;;;;;;;;;5116111;28;20097;-71
2021/09/03 07:38:34;;;;;;;7.13;3.90;;;;;;;;;;5115972;28;20043;-76
2021/09/03 07:41:00;;;;;;;6.80;3.65;;;;;;;;;;5115983;28;20050;-75
2021/09/03 07:43:26;;;;;;;4.90;3.35;;;;;;;;;;5115987;28;20031;-75
2021/09/03 07:45:54;;;;;;;6.13;3.40;;;;;;;;;;5115852;28;20043;-75
2021/09/03 07:48:20;;;;;;;4.65;3.53;;;;;;;;;;5115698;28;20495;-74
2021/09/03 07:50:46;;;;;;;6.97;3.67;;;;;;;;;;5115915;28;20480;-74
2021/09/03 07:53:13;;;;;;;12.05;4.20;;;;;;;;;;5116270;28;20119;-75
2021/09/03 07:55:39;;;;;;;6.32;4.35;;;;;;;;;;5115895;28;20035;-75
2021/09/03 07:58:05;;;;;;;6.85;4.10;;;;;;;;;;5115595;28;20373;-75
2021/09/03 08:00:32;;;;;;;6.97;4.00;;;;;;;;;;5115665;28;20032;-75
2021/09/03 08:02:58;;;;;;;4.50;3.67;;;;;;;;;;5115960;28;20114;-75
2021/09/03 08:05:24;;;;;;;8.15;3.90;;;;;;;;;;5115720;28;20032;-74
2021/09/03 08:07:50;;;;;;;11.25;3.58;;;;;;;;;;5115835;28;20040;-74
2021/09/03 08:10:17;;;;;;;4.15;3.20;;;;;;;;;;5115416;28;20027;-74
2021/09/03 08:12:43;;;;;;;6.03;3.65;;;;;;;;;;5115644;28;20043;-75
2021/09/03 08:15:09;;;;;;;6.07;3.35;;;;;;;;;;5115645;28;20562;-75
2021/09/03 08:17:35;;;;;;;4.68;3.50;;;;;;;;;;5115368;28;20039;-75
2021/09/03 08:20:02;;;;;;;6.95;3.72;;;;;;;;;;5115182;28;20040;-75
2021/09/03 08:22:28;;;;;;;5.18;3.72;;;;;;;;;;5115202;28;20376;-74
2021/09/03 08:24:54;;;;;;;3.67;3.20;;;;;;;;;;5114880;28;20047;-73
2021/09/03 08:27:20;;;;;;;4.93;3.78;;;;;;;;;;5115242;28;20028;-74
2021/09/03 08:29:46;;;;;;;5.63;3.95;;;;;;;;;;5115559;28;20035;-73
2021/09/03 08:32:16;;;;;;;5.47;3.67;;;;;;;;;;5115238;28;20105;-72
2021/09/03 08:34:42;;;;;;;4.20;3.55;;;;;;;;;;5115542;28;20437;-72
2021/09/03 08:37:09;;;;;;;4.18;3.40;;;;;;;;;;5115053;28;20036;-73
2021/09/03 08:39:35;;;;;;;4.65;3.45;;;;;;;;;;5115395;28;20036;-72
2021/09/03 08:42:01;;;;;;;4.75;3.45;;;;;;;;;;5115170;28;20039;-72
2021/09/03 08:44:31;;;;;;;5.90;3.17;;;;;;;;;;5115275;28;20384;-72
2021/09/03 08:46:57;;;;;;;4.85;3.58;;;;;;;;;;5114853;28;20112;-72
2021/09/03 08:49:24;;;;;;;8.25;3.30;;;;;;;;;;5114832;28;20502;-72
2021/09/03 08:51:50;;;;;;;6.85;3.78;;;;;;;;;;5114762;28;20039;-72
2021/09/03 08:54:16;;;;;;;5.30;3.55;;;;;;;;;;5114865;28;20028;-72
2021/09/03 08:56:42;;;;;;;7.57;3.55;;;;;;;;;;5114695;28;20046;-74
2021/09/03 08:59:08;;;;;;;4.25;3.55;;;;;;;;;;5114592;28;20397;-75
2021/09/03 09:01:34;;;;;;;5.00;3.63;;;;;;;;;;5114688;28;20032;-73
2021/09/03 09:04:08;;;;;;;7.93;3.70;;;;;;;;;;5114598;28;20436;-72
2021/09/03 09:06:34;;;;;;;6.72;3.58;;;;;;;;;;5114521;28;20035;-73
2021/09/03 09:09:06;;;;;;;3.90;3.53;;;;;;;;;;5114080;28;20127;-72
2021/09/03 09:11:35;;;;;;;5.60;3.28;;;;;;;;;;5114652;28;20088;-72
2021/09/03 09:14:07;;;;;;;5.10;3.53;;;;;;;;;;5114401;28;20036;-72
2021/09/03 09:16:33;;;;;;;6.07;3.63;;;;;;;;;;5114458;28;20038;-72
2021/09/03 09:19:01;;;;;;;5.28;3.60;;;;;;;;;;5114494;28;20039;-71
2021/09/03 09:21:31;;;;;;;5.85;3.40;;;;;;;;;;5114134;28;20027;-72
2021/09/03 09:24:01;;;;;;;5.85;3.33;;;;;;;;;;5114217;28;20101;-72
2021/09/03 09:26:27;;;;;;;5.72;3.63;;;;;;;;;;5114027;28;20122;-72
2021/09/03 09:28:54;;;;;;;4.25;3.35;;;;;;;;;;5114295;28;20047;-72
2021/09/03 09:31:33;;;;;;;4.00;3.60;;;;;;;;;;5114125;28;20036;-72
2021/09/03 09:33:59;;;;;;;4.30;3.80;;;;;;;;;;5113269;28;20031;-72
2021/09/03 09:36:33;;;;;;;5.30;3.38;;;;;;;;;;5113988;28;20055;-72
2021/09/03 09:38:59;;;;;;;5.72;3.80;;;;;;;;;;5113868;28;20396;-73
2021/09/03 09:41:25;;;;;;;7.78;3.60;;;;;;;;;;5113901;28;20464;-75
2021/09/03 09:43:51;;;;;;;6.93;3.83;;;;;;;;;;5113958;28;20407;-73
2021/09/03 09:46:17;;;;;;;4.20;3.67;;;;;;;;;;5113916;28;20032;-72
2021/09/03 09:48:49;;;;;;;6.72;3.78;;;;;;;;;;5113649;28;20461;-73
2021/09/03 09:51:15;;;;;;;;;;;;;;;;;;5096054;28;20372;-73
2021/09/03 09:53:41;;;;;;;4.43;3.58;;;;;;;;;;5113690;28;19903;-73
2021/09/03 09:56:07;;;;;;;8.13;3.85;;;;;;;;;;5114054;28;20040;-75
2021/09/03 09:58:33;;;;;;;5.25;3.50;;;;;;;;;;5113530;28;20036;-75
2021/09/03 10:00:59;;;;;;;5.45;3.33;;;;;;;;;;5113840;28;20035;-72
2021/09/03 10:03:26;;;;;;;4.68;3.50;;;;;;;;;;5113371;28;20028;-73
2021/09/03 10:05:52;;;;;;;5.07;4.00;;;;;;;;;;5113427;28;20046;-73
2021/09/03 10:08:18;;;;;;;3.83;3.30;;;;;;;;;;5113871;28;20059;-73
2021/09/03 10:10:44;;;;;;;16.90;3.92;;;;;;;;;;5113522;28;20526;-73
2021/09/03 10:13:10;;;;;;;5.72;3.33;;;;;;;;;;5113498;28;20042;-73
2021/09/03 10:15:36;;;;;;;9.18;3.75;;;;;;;;;;5113444;28;20456;-72
2021/09/03 10:18:02;;;;;;;4.07;3.40;;;;;;;;;;5113532;28;20044;-72
2021/09/03 10:20:28;;;;;;;3.88;3.42;;;;;;;;;;5113607;28;20035;-73
2021/09/03 10:22:54;;;;;;;4.88;3.55;;;;;;;;;;5113706;28;20036;-74
2021/09/03 10:25:21;;;;;;;4.00;3.60;;;;;;;;;;5113226;28;20048;-72
2021/09/03 10:28:06;;;;;;;3.55;3.25;;;;;;;;;;5113312;28;20495;-73
2021/09/03 10:30:32;;;;;;;6.10;3.45;;;;;;;;;;5113484;28;20054;-73
2021/09/03 10:33:10;;;;;;;7.22;3.70;;;;;;;;;;5095063;28;20468;-72
2021/09/03 10:35:36;;;;;;;4.43;3.80;;;;;;;;;;5113670;28;20039;-72
2021/09/03 10:38:22;;;;;;;3.63;3.30;;;;;;;;;;5113262;28;20036;-72
2021/09/03 10:40:48;;;;;;;5.75;3.45;;;;;;;;;;5112856;28;20126;-73
2021/09/03 10:43:14;;;;;;;6.28;3.70;;;;;;;;;;5113315;28;20556;-72
2021/09/03 10:45:44;;;;;;;9.40;3.88;;;;;;;;;;5113197;28;20123;-72
2021/09/03 10:48:12;;;;;;;5.63;4.07;;;;;;;;;;5117079;28;20055;-71
2021/09/03 10:50:41;;;;;;;4.45;3.85;;;;;;;;;;5116843;28;20120;-72
2021/09/03 10:53:10;;;;;;;3.90;3.50;;;;;;;;;;5117118;28;20034;-73
2021/09/03 10:55:55;;;;;;;4.03;3.60;;;;;;;;;;5117210;28;20035;-71
2021/09/03 10:58:40;;;;;;;7.53;3.60;;;;;;;;;;5115251;28;20082;-72
2021/09/03 11:01:15;;;;;;;3.90;3.42;;;;;;;;;;5114109;28;20035;-72
2021/09/03 11:03:47;;;;;;;7.22;3.05;;;;;;;;;;5115091;28;20051;-72
2021/09/03 11:06:13;;;;;;;;;;;;;;;;;;5117626;28;20042;-72
2021/09/03 11:08:39;;;;;;;9.15;3.47;;;;;;;;;;5117123;28;19998;-72
2021/09/03 11:11:24;;;;;;;7.05;3.70;;;;;;;;;;5116825;28;20420;-73
2021/09/03 11:13:51;;;;;;;3.88;3.47;;;;;;;;;;5116434;28;20118;-73
2021/09/03 11:16:35;;;;;;;4.72;3.47;;;;;;;;;;5116582;28;20035;-73
2021/09/03 11:19:06;;;;;;;5.30;3.50;;;;;;;;;;5116384;28;20046;-72
2021/09/03 11:21:36;;;;;;;4.03;3.55;;;;;;;;;;5098408;28;20063;-72
2021/09/03 11:24:03;;;;;;;4.53;3.40;;;;;;;;;;5114418;28;20028;-73
2021/09/03 11:26:30;;;;;;;3.72;3.40;;;;;;;;;;5113347;28;20062;-71
2021/09/03 11:28:57;;;;;;;4.00;3.60;;;;;;;;;;5113889;28;20023;-73
2021/09/03 11:31:23;;;;;;;6.43;3.80;;;;;;;;;;5116223;28;20130;-72
2021/09/03 11:33:49;;;;;;;6.60;3.22;;;;;;;;;;5116425;28;20039;-73
2021/09/03 11:36:15;;;;;;;6.22;3.63;;;;;;;;;;5116367;28;20156;-75
2021/09/03 11:38:42;;;;;;;4.68;3.42;;;;;;;;;;5115958;28;20047;-72
2021/09/03 11:41:09;;;;;;;4.15;3.40;;;;;;;;;;5116032;28;20043;-73
2021/09/03 11:43:35;;;;;;;4.80;4.07;;;;;;;;;;5116329;28;20388;-73
2021/09/03 11:46:01;;;;;;;3.85;3.40;;;;;;;;;;5116011;28;20031;-73
2021/09/03 11:48:28;;;;;;;5.22;3.88;;;;;;;;;;5115980;28;20122;-73
2021/09/03 11:50:59;;;;;;;7.75;3.58;;;;;;;;;;5116022;28;20031;-73
2021/09/03 11:53:26;;;;;;;8.13;3.35;;;;;;;;;;5115585;28;20036;-73
2021/09/03 11:55:53;;;;;;;8.55;3.58;;;;;;;;;;5115712;28;20392;-72
2021/09/03 11:58:20;;;;;;;5.30;3.72;;;;;;;;;;5115478;28;20106;-72
2021/09/03 12:00:48;;;;;;;7.53;3.47;;;;;;;;;;5115480;28;20067;-72
2021/09/03 12:03:15;;;;;;;4.20;3.38;;;;;;;;;;5115684;28;20107;-74
2021/09/03 12:05:43;;;;;;;4.60;3.20;;;;;;;;;;5115651;28;20024;-72
2021/09/03 12:08:09;;;;;;;4.32;3.67;;;;;;;;;;5115434;28;20476;-74
2021/09/03 12:10:56;;;;;;;4.05;3.30;;;;;;;;;;5115571;28;20039;-72
2021/09/03 12:13:33;;;;;;;3.83;3.20;;;;;;;;;;5115704;28;20082;-72
2021/09/03 12:16:04;;;;;;;6.28;3.85;;;;;;;;;;5115703;28;20028;-72
2021/09/03 12:18:41;;;;;;;7.85;3.53;;;;;;;;;;5115278;28;20047;-72
2021/09/03 12:21:14;;;;;;;6.60;3.38;;;;;;;;;;5115490;28;20035;-73
2021/09/03 12:23:40;;;;;;;4.85;3.55;;;;;;;;;;5115452;28;20039;-73
2021/09/03 12:26:11;;;;;;;6.20;3.65;;;;;;;;;;5115276;28;20122;-74
2021/09/03 12:28:38;;;;;;;7.28;3.38;;;;;;;;;;5115457;28;20031;-75
2021/09/03 12:31:06;;;;;;;4.38;3.35;;;;;;;;;;5114987;28;20564;-73
2021/09/03 12:33:32;;;;;;;6.07;3.70;;;;;;;;;;5115165;28;20031;-73
2021/09/03 12:36:06;;;;;;;5.60;3.75;;;;;;;;;;5115106;28;20028;-73
2021/09/03 12:38:38;;;;;;;7.78;3.75;;;;;;;;;;5114757;28;20036;-72
2021/09/03 12:41:06;;;;;;;4.65;3.88;;;;;;;;;;5115061;28;20063;-72
2021/09/03 12:43:33;;;;;;;5.43;3.67;;;;;;;;;;5114914;28;20036;-72
2021/09/03 12:45:59;;;;;;;4.82;3.00;;;;;;;;;;5115171;28;20032;-73
2021/09/03 12:48:25;;;;;;;5.10;3.60;;;;;;;;;;5114732;28;20040;-73
2021/09/03 12:50:54;;;;;;;4.65;3.47;;;;;;;;;;5114902;28;20047;-72
2021/09/03 12:53:21;;;;;;;5.57;3.60;;;;;;;;;;5115031;28;20032;-73
2021/09/03 12:55:48;;;;;;;6.30;3.53;;;;;;;;;;5114804;28;20772;-73
2021/09/03 12:58:15;;;;;;;5.78;3.55;;;;;;;;;;5114408;28;20040;-72
2021/09/03 13:00:41;;;;;;;4.20;3.65;;;;;;;;;;5114495;28;20035;-73
2021/09/03 13:03:08;;;;;;;5.03;3.60;;;;;;;;;;5114520;28;20031;-72
2021/09/03 13:05:34;;;;;;;10.07;3.20;;;;;;;;;;5114599;28;20106;-72
2021/09/03 13:08:01;;;;;;;4.70;3.90;;;;;;;;;;5114717;28;20042;-73
2021/09/03 13:10:27;;;;;;;8.02;3.92;;;;;;;;;;5114045;28;20392;-71
2021/09/03 13:12:54;;;;;;;5.88;3.60;;;;;;;;;;5114312;28;20035;-74
2021/09/03 13:15:21;;;;;;;5.43;3.05;;;;;;;;;;5114540;28;20042;-72
2021/09/03 13:17:47;;;;;;;4.68;3.53;;;;;;;;;;5114210;28;20032;-72
2021/09/03 13:20:14;;;;;;;4.78;3.25;;;;;;;;;;5114374;28;20396;-72
2021/09/03 13:22:40;;;;;;;3.92;3.30;;;;;;;;;;5114376;28;20482;-72
2021/09/03 13:25:06;;;;;;;6.32;3.30;;;;;;;;;;5114077;28;20108;-72
2021/09/03 13:27:33;;;;;;;3.75;3.38;;;;;;;;;;5113930;28;20344;-75
2021/09/03 13:29:59;;;;;;;4.53;3.40;;;;;;;;;;5114402;28;20043;-76
2021/09/03 13:32:25;;;;;;;5.63;4.10;;;;;;;;;;5114283;28;20391;-76
2021/09/03 13:34:51;;;;;;;6.45;3.53;;;;;;;;;;5114153;28;20036;-75
2021/09/03 13:37:18;;;;;;;3.70;3.33;;;;;;;;;;5114088;28;20046;-75
2021/09/03 13:39:46;;;;;;;5.55;3.38;;;;;;;;;;5113962;28;20043;-76
2021/09/03 13:42:12;;;;;;;4.55;3.03;;;;;;;;;;5114015;28;20096;-75
2021/09/03 13:44:38;;;;;;;4.70;3.42;;;;;;;;;;5114125;28;20031;-75
2021/09/03 13:47:04;;;;;;;6.03;3.58;;;;;;;;;;5113719;28;20027;-76
2021/09/03 13:49:31;;;;;;;4.75;3.10;;;;;;;;;;5113877;28;20038;-76
2021/09/03 13:51:57;;;;;;;9.50;3.72;;;;;;;;;;5113776;28;20468;-75
2021/09/03 13:54:23;;;;;;;6.30;3.40;;;;;;;;;;5113907;28;20110;-74
2021/09/03 13:56:49;;;;;;;4.78;3.58;;;;;;;;;;5113651;28;20028;-73
2021/09/03 13:59:15;;;;;;;4.88;3.40;;;;;;;;;;5113740;28;20039;-73
2021/09/03 14:01:41;;;;;;;4.35;3.60;;;;;;;;;;5113861;28;20394;-74
2021/09/03 14:04:08;;;;;;;3.95;3.30;;;;;;;;;;5113652;28;20039;-72
2021/09/03 14:06:35;;;;;;;6.93;3.45;;;;;;;;;;5109592;28;20038;-74
2021/09/03 14:09:01;;;;;;;12.60;3.38;;;;;;;;;;5091218;28;20040;-73
2021/09/03 14:11:27;;;;;;;9.77;3.50;;;;;;;;;;5091865;28;20024;-73
2021/09/03 14:13:54;;;;;;;9.32;3.92;;;;;;;;;;5091846;28;20040;-76
2021/09/03 14:16:20;;;;;;;3.85;3.25;;;;;;;;;;5092185;28;20040;-73
2021/09/03 14:18:46;;;;;;;10.57;3.33;;;;;;;;;;5092333;28;20036;-75
2021/09/03 14:21:12;;;;;;;4.43;3.15;;;;;;;;;;5096380;28;20075;-73
2021/09/03 14:23:38;;;;;;;4.45;3.03;;;;;;;;;;5099142;28;20480;-72
2021/09/03 14:26:04;;;;;;;5.13;3.63;;;;;;;;;;5098974;28;20053;-72
2021/09/03 14:28:30;;;;;;;3.97;3.33;;;;;;;;;;5098026;28;20117;-72
2021/09/03 14:30:56;;;;;;;9.45;4.00;;;;;;;;;;5098529;28;20538;-72
2021/09/03 14:33:23;;;;;;;5.28;3.60;;;;;;;;;;5099345;28;20387;-71
2021/09/03 14:35:52;;;;;;;7.63;3.38;;;;;;;;;;5099277;28;20103;-72
2021/09/03 14:38:18;;;;;;;3.63;3.08;;;;;;;;;;5098447;28;20381;-73
2021/09/03 14:40:45;;;;;;;83.95;9.20;;;;;;;;;;5098767;28;20043;-75